createdAt,value
2017-11-09T00:00:24.896Z,25.10
2017-11-09T00:02:52.010Z,23.70
2017-11-09T00:05:24.284Z,24.70
2017-11-09T00:07:50.663Z,23.17
2017-11-09T00:10:16.892Z,25.20
2017-11-09T00:12:43.058Z,24.00
2017-11-09T00:15:09.194Z,22.93
2017-11-09T00:17:35.340Z,23.23
2017-11-09T00:20:02.431Z,22.43
2017-11-09T00:22:28.725Z,22.63
2017-11-09T00:24:55.634Z,22.33
2017-11-09T00:27:21.737Z,24.30
2017-11-09T00:29:48.047Z,23.03
2017-11-09T00:32:14.163Z,23.67
2017-11-09T00:34:40.264Z,23.30
2017-11-09T00:37:07.168Z,23.27
2017-11-09T00:39:33.300Z,24.03
2017-11-09T00:41:59.591Z,22.33
2017-11-09T00:44:25.934Z,22.83
2017-11-09T00:46:52.162Z,22.97
2017-11-09T00:49:18.328Z,24.37
2017-11-09T00:51:44.472Z,22.70
2017-11-09T00:54:11.409Z,23.50
2017-11-09T00:56:38.408Z,22.27
2017-11-09T00:59:04.607Z,22.57
2017-11-09T01:01:30.822Z,21.80
2017-11-09T01:03:57.803Z,21.60
2017-11-09T01:06:24.221Z,22.43
2017-11-09T01:08:50.483Z,22.17
2017-11-09T01:11:16.600Z,23.57
2017-11-09T01:13:42.807Z,21.37
2017-11-09T01:16:09.044Z,23.40
2017-11-09T01:18:35.216Z,22.07
2017-11-09T01:21:02.186Z,23.90
2017-11-09T01:23:28.412Z,21.00
2017-11-09T01:25:54.668Z,22.60
2017-11-09T01:28:20.793Z,22.97
2017-11-09T01:30:47.016Z,21.87
2017-11-09T01:33:13.213Z,23.10
2017-11-09T01:35:39.572Z,22.10
2017-11-09T01:38:05.724Z,22.90
2017-11-09T01:40:31.900Z,21.73
2017-11-09T01:42:58.119Z,22.40
2017-11-09T01:45:24.276Z,21.10
2017-11-09T01:47:50.468Z,22.53
2017-11-09T01:50:17.370Z,22.30
2017-11-09T01:52:43.558Z,21.27
2017-11-09T01:55:09.719Z,21.70
2017-11-09T01:57:35.928Z,21.80
2017-11-09T02:00:02.219Z,23.50
2017-11-09T02:02:28.502Z,22.23
2017-11-09T02:04:54.697Z,21.47
2017-11-09T02:07:20.821Z,20.37
2017-11-09T02:09:47.054Z,21.70
2017-11-09T02:12:13.213Z,21.20
2017-11-09T02:14:39.428Z,21.60
2017-11-09T02:17:05.522Z,22.83
2017-11-09T02:19:31.704Z,21.70
2017-11-09T02:21:58.757Z,23.07
2017-11-09T02:24:25.798Z,21.03
2017-11-09T02:26:52.716Z,21.40
2017-11-09T02:29:19.182Z,21.70
2017-11-09T02:31:45.410Z,21.00
2017-11-09T02:34:12.628Z,21.03
2017-11-09T02:36:38.787Z,20.33
2017-11-09T02:39:05.739Z,22.17
2017-11-09T02:41:32.682Z,21.33
2017-11-09T02:43:59.581Z,21.43
2017-11-09T02:46:25.709Z,20.43
2017-11-09T02:48:51.908Z,21.50
2017-11-09T02:51:18.033Z,22.10
2017-11-09T02:53:44.280Z,21.07
2017-11-09T02:56:10.634Z,21.93
2017-11-09T02:58:37.467Z,19.97
2017-11-09T03:01:03.846Z,20.77
2017-11-09T03:03:30.491Z,22.23
2017-11-09T03:05:58.242Z,22.33
2017-11-09T03:08:24.477Z,24.20
2017-11-09T03:10:50.748Z,22.37
2017-11-09T03:13:16.977Z,22.70
2017-11-09T03:15:44.071Z,22.03
2017-11-09T03:18:10.337Z,23.13
2017-11-09T03:20:36.448Z,22.50
2017-11-09T03:23:02.540Z,22.37
2017-11-09T03:25:28.694Z,22.63
2017-11-09T03:27:54.835Z,22.40
2017-11-09T03:30:21.142Z,24.70
2017-11-09T03:32:47.261Z,23.53
2017-11-09T03:35:13.582Z,22.90
2017-11-09T03:37:39.851Z,24.07
2017-11-09T03:40:06.136Z,24.20
2017-11-09T03:42:32.368Z,22.70
2017-11-09T03:44:58.556Z,23.57
2017-11-09T03:47:25.425Z,23.83
2017-11-09T03:49:51.603Z,24.17
2017-11-09T03:52:17.680Z,24.23
2017-11-09T03:54:43.840Z,24.43
2017-11-09T03:57:10.044Z,23.60
2017-11-09T03:59:37.279Z,22.70
2017-11-09T04:02:03.572Z,23.17
2017-11-09T04:04:30.563Z,22.50
2017-11-09T04:06:56.759Z,22.17
2017-11-09T04:09:23.696Z,23.77
2017-11-09T04:17:14.026Z,23.70
2017-11-09T04:19:40.140Z,27.20
2017-11-09T04:22:07.040Z,25.90
2017-11-09T04:24:33.169Z,24.47
2017-11-09T04:26:59.352Z,23.70
2017-11-09T04:29:25.585Z,26.07
2017-11-09T04:31:51.866Z,24.90
2017-11-09T04:34:18.077Z,23.27
2017-11-09T04:36:44.928Z,24.47
2017-11-09T04:39:11.376Z,23.23
2017-11-09T04:41:37.540Z,24.40
2017-11-09T04:44:03.828Z,26.50
2017-11-09T04:46:30.012Z,24.47
2017-11-09T04:48:56.225Z,25.40
2017-11-09T04:51:22.357Z,25.93
2017-11-09T04:53:48.514Z,27.23
2017-11-09T04:56:14.792Z,26.90
2017-11-09T04:58:40.947Z,24.97
2017-11-09T05:01:07.141Z,25.13
2017-11-09T05:03:33.316Z,25.77
2017-11-09T05:05:59.501Z,27.17
2017-11-09T05:08:25.713Z,29.00
2017-11-09T05:10:52.627Z,27.30
2017-11-09T05:13:18.811Z,28.17
2017-11-09T05:15:44.973Z,28.07
2017-11-09T05:18:11.177Z,29.83
2017-11-09T05:20:37.317Z,31.33
2017-11-09T05:23:03.501Z,31.80
2017-11-09T05:25:29.672Z,30.60
2017-11-09T05:27:56.728Z,32.73
2017-11-09T05:30:23.003Z,31.00
2017-11-09T05:32:49.173Z,34.20
2017-11-09T05:35:15.391Z,32.30
2017-11-09T05:37:42.080Z,33.70
2017-11-09T05:40:08.299Z,32.47
2017-11-09T05:42:34.473Z,33.10
2017-11-09T05:45:00.637Z,34.07
2017-11-09T05:47:27.671Z,32.00
2017-11-09T05:49:54.925Z,34.23
2017-11-09T05:52:21.194Z,34.47
2017-11-09T05:54:47.572Z,35.00
2017-11-09T05:57:13.724Z,37.43
2017-11-09T05:59:40.617Z,35.50
2017-11-09T06:02:06.833Z,35.50
2017-11-09T06:04:33.006Z,39.40
2017-11-09T06:06:59.895Z,38.10
2017-11-09T06:09:26.066Z,36.50
2017-11-09T06:11:52.197Z,38.40
2017-11-09T06:14:19.082Z,39.47
2017-11-09T06:16:45.249Z,38.60
2017-11-09T06:19:11.671Z,37.47
2017-11-09T06:21:37.864Z,38.03
2017-11-09T06:24:03.995Z,37.47
2017-11-09T06:26:30.181Z,38.53
2017-11-09T06:28:57.015Z,39.60
2017-11-09T06:31:23.889Z,40.30
2017-11-09T06:33:50.088Z,40.90
2017-11-09T06:36:16.997Z,39.70
2017-11-09T06:38:43.112Z,40.73
2017-11-09T06:41:09.328Z,40.97
2017-11-09T06:43:35.528Z,39.30
2017-11-09T06:46:01.700Z,41.50
2017-11-09T06:48:27.824Z,40.63
2017-11-09T06:50:53.978Z,40.60
2017-11-09T06:53:20.063Z,36.87
2017-11-09T06:55:46.226Z,36.47
2017-11-09T06:58:13.159Z,37.90
2017-11-09T07:00:39.347Z,37.77
2017-11-09T07:03:05.527Z,35.00
2017-11-09T07:05:32.480Z,36.60
2017-11-09T07:07:59.415Z,36.20
2017-11-09T07:10:26.445Z,36.80
2017-11-09T07:12:52.566Z,37.63
2017-11-09T07:15:18.816Z,35.00
2017-11-09T07:17:45.722Z,35.40
2017-11-09T07:20:11.895Z,35.10
2017-11-09T07:22:38.986Z,33.30
2017-11-09T07:25:05.215Z,33.90
2017-11-09T07:27:31.413Z,33.47
2017-11-09T07:29:57.515Z,34.77
2017-11-09T07:32:24.490Z,35.70
2017-11-09T07:34:50.759Z,35.37
2017-11-09T07:37:16.879Z,34.83
2017-11-09T07:39:43.149Z,35.00
2017-11-09T07:42:09.269Z,33.30
2017-11-09T07:44:36.167Z,34.10
2017-11-09T07:47:02.366Z,32.90
2017-11-09T07:49:28.540Z,35.27
2017-11-09T07:51:55.629Z,33.87
2017-11-09T07:54:21.745Z,34.27
2017-11-09T07:56:48.002Z,35.80
2017-11-09T07:59:14.309Z,34.90
2017-11-09T08:01:40.673Z,36.10
2017-11-09T08:04:06.795Z,36.13
2017-11-09T08:06:32.991Z,34.40
2017-11-09T08:08:59.162Z,36.30
2017-11-09T08:11:25.464Z,33.73
2017-11-09T08:13:51.624Z,35.40
2017-11-09T08:16:18.906Z,37.00
2017-11-09T08:18:45.040Z,38.63
2017-11-09T08:21:11.642Z,37.10
2017-11-09T08:23:38.454Z,36.70
2017-11-09T08:26:07.116Z,39.13
2017-11-09T08:28:34.525Z,37.90
2017-11-09T08:31:04.958Z,36.90
2017-11-09T08:33:42.364Z,37.77
2017-11-09T08:36:08.489Z,36.20
2017-11-09T08:38:34.661Z,36.60
2017-11-09T08:41:00.793Z,36.50
2017-11-09T08:43:27.136Z,35.80
2017-11-09T08:45:53.505Z,36.07
2017-11-09T08:48:19.769Z,36.07
2017-11-09T08:50:45.988Z,36.47
2017-11-09T08:53:12.588Z,35.70
2017-11-09T08:55:38.651Z,37.20
2017-11-09T08:58:04.856Z,33.60
2017-11-09T09:00:31.149Z,36.50
2017-11-09T09:02:58.107Z,34.27
2017-11-09T09:05:24.301Z,35.50
2017-11-09T09:07:50.449Z,34.90
2017-11-09T09:10:17.489Z,32.13
2017-11-09T09:12:44.392Z,33.40
2017-11-09T09:15:10.532Z,31.07
2017-11-09T09:17:36.745Z,34.77
2017-11-09T09:20:03.009Z,31.40
2017-11-09T09:25:39.964Z,31.17
2017-11-09T09:28:08.040Z,30.73
2017-11-09T09:30:34.335Z,33.20
2017-11-09T09:36:11.395Z,31.73
2017-11-09T09:38:42.348Z,31.13
2017-11-09T09:41:08.547Z,30.70
2017-11-09T09:43:34.735Z,32.10
2017-11-09T09:46:00.932Z,30.00
2017-11-09T09:48:27.126Z,30.60
2017-11-09T09:50:53.344Z,29.73
2017-11-09T09:53:19.517Z,30.63
2017-11-09T09:55:45.639Z,29.43
2017-11-09T09:58:11.875Z,30.03
2017-11-09T10:00:38.098Z,26.90
2017-11-09T10:03:04.341Z,27.27
2017-11-09T10:05:30.533Z,26.63
2017-11-09T10:07:57.413Z,29.00
2017-11-09T10:10:23.568Z,27.13
2017-11-09T10:12:49.726Z,27.00
2017-11-09T10:15:15.903Z,27.00
2017-11-09T10:17:42.148Z,27.13
2017-11-09T10:20:08.279Z,27.10
2017-11-09T10:22:34.389Z,26.63
2017-11-09T10:25:00.644Z,25.00
2017-11-09T10:27:27.568Z,24.10
2017-11-09T10:29:53.771Z,23.50
2017-11-09T10:32:19.911Z,23.00
2017-11-09T10:34:46.033Z,22.50
2017-11-09T10:37:12.238Z,20.13
2017-11-09T10:39:38.394Z,22.23
2017-11-09T10:42:04.576Z,31.07
2017-11-09T10:44:30.736Z,22.03
2017-11-09T10:46:57.815Z,20.27
2017-11-09T10:49:24.831Z,26.27
2017-11-09T10:51:50.986Z,20.07
2017-11-09T10:54:18.005Z,22.33
2017-11-09T10:56:44.234Z,20.00
2017-11-09T10:59:10.404Z,19.07
2017-11-09T11:01:36.555Z,20.00
2017-11-09T11:04:02.740Z,20.03
2017-11-09T11:06:29.621Z,19.93
2017-11-09T11:08:56.011Z,17.93
2017-11-09T11:11:22.913Z,18.60
2017-11-09T11:13:49.162Z,17.97
2017-11-09T11:16:15.293Z,18.80
2017-11-09T11:18:42.307Z,18.70
2017-11-09T11:21:08.519Z,16.50
2017-11-09T11:23:34.679Z,15.53
2017-11-09T11:26:00.819Z,16.90
2017-11-09T11:28:27.766Z,15.40
2017-11-09T11:30:54.737Z,15.20
2017-11-09T11:33:21.046Z,15.07
2017-11-09T11:35:48.010Z,14.93
2017-11-09T11:38:14.164Z,15.27
2017-11-09T11:40:40.300Z,14.90
2017-11-09T11:43:06.663Z,15.57
2017-11-09T11:45:33.927Z,16.13
2017-11-09T11:48:00.117Z,16.83
2017-11-09T11:50:26.367Z,16.00
2017-11-09T11:52:53.313Z,15.33
2017-11-09T11:55:20.309Z,16.80
2017-11-09T11:57:46.457Z,15.30
2017-11-09T12:00:12.707Z,15.63
2017-11-09T12:02:39.610Z,16.07
2017-11-09T12:05:06.573Z,17.37
2017-11-09T12:07:32.799Z,16.60
2017-11-09T12:09:59.016Z,17.33
2017-11-09T12:12:28.170Z,16.27
2017-11-09T12:14:54.418Z,16.70
2017-11-09T12:17:20.840Z,17.20
2017-11-09T12:19:47.054Z,16.97
2017-11-09T12:22:13.146Z,17.93
2017-11-09T12:24:39.989Z,17.77
2017-11-09T12:27:06.996Z,18.60
2017-11-09T12:29:33.195Z,19.30
2017-11-09T12:31:59.352Z,18.93
2017-11-09T12:34:25.526Z,20.10
2017-11-09T12:36:52.488Z,20.10
2017-11-09T12:39:18.705Z,19.67
2017-11-09T12:41:44.792Z,20.90
2017-11-09T12:44:11.755Z,20.50
2017-11-09T12:46:38.760Z,21.50
2017-11-09T12:49:04.928Z,21.90
2017-11-09T12:51:31.870Z,20.23
2017-11-09T12:53:58.850Z,20.90
2017-11-09T12:56:24.982Z,22.17
2017-11-09T12:58:51.137Z,20.27
2017-11-09T13:01:17.410Z,21.00
2017-11-09T13:03:43.613Z,19.50
2017-11-09T13:06:09.791Z,20.93
2017-11-09T13:08:36.054Z,23.53
2017-11-09T13:11:02.281Z,22.20
2017-11-09T13:13:28.660Z,22.17
2017-11-09T13:15:54.964Z,24.07
2017-11-09T13:18:21.917Z,22.90
2017-11-09T13:20:48.093Z,26.80
2017-11-09T13:23:14.276Z,27.90
2017-11-09T13:25:40.497Z,24.80
2017-11-09T13:28:06.671Z,25.67
2017-11-09T13:30:32.886Z,25.30
2017-11-09T13:32:59.353Z,26.27
2017-11-09T13:35:25.450Z,23.87
2017-11-09T13:37:51.619Z,26.00
2017-11-09T13:40:18.593Z,27.40
2017-11-09T13:42:44.852Z,24.37
2017-11-09T13:45:11.047Z,25.03
2017-11-09T13:47:37.441Z,25.70
2017-11-09T13:50:04.430Z,28.00
2017-11-09T13:52:30.687Z,26.00
2017-11-09T13:54:57.038Z,27.97
2017-11-09T13:57:23.931Z,32.60
2017-11-09T13:59:50.146Z,27.77
2017-11-09T14:02:16.433Z,27.60
2017-11-09T14:04:43.560Z,26.60
2017-11-09T14:07:09.757Z,31.40
2017-11-09T14:09:35.927Z,29.17
2017-11-09T14:12:02.089Z,29.63
2017-11-09T14:14:28.394Z,28.40
2017-11-09T14:16:55.552Z,28.13
2017-11-09T14:19:21.873Z,27.77
2017-11-09T14:21:48.846Z,28.57
2017-11-09T14:24:15.418Z,27.10
2017-11-09T14:26:41.747Z,28.50
2017-11-09T14:29:07.909Z,27.97
2017-11-09T14:31:35.080Z,29.60
2017-11-09T14:34:01.296Z,29.10
2017-11-09T14:36:28.231Z,28.90
2017-11-09T14:38:55.250Z,28.17
2017-11-09T14:41:21.444Z,27.33
2017-11-09T14:43:47.734Z,28.60
2017-11-09T14:46:14.712Z,27.30
2017-11-09T14:48:40.861Z,27.50
2017-11-09T14:51:07.134Z,25.87
2017-11-09T14:53:34.067Z,27.57
2017-11-09T14:56:01.003Z,29.03
2017-11-09T14:58:27.210Z,26.67
2017-11-09T15:00:53.484Z,27.57
2017-11-09T15:03:19.826Z,26.40
2017-11-09T15:05:46.092Z,27.90
2017-11-09T15:08:12.463Z,26.90
2017-11-09T15:10:38.753Z,26.83
2017-11-09T15:13:04.940Z,26.03
2017-11-09T15:15:31.373Z,25.60
2017-11-09T15:17:57.646Z,26.10
2017-11-09T15:20:23.877Z,25.63
2017-11-09T15:22:50.102Z,26.03
2017-11-09T15:25:16.386Z,26.77
2017-11-09T15:27:42.607Z,23.30
2017-11-09T15:30:08.735Z,23.80
2017-11-09T15:32:35.085Z,27.07
2017-11-09T15:35:01.295Z,25.00
2017-11-09T15:37:27.489Z,23.77
2017-11-09T15:39:55.456Z,25.03
2017-11-09T15:42:22.426Z,25.03
2017-11-09T15:44:49.039Z,24.97
2017-11-09T15:47:15.896Z,25.40
2017-11-09T15:49:42.142Z,21.43
2017-11-09T15:52:08.395Z,22.50
2017-11-09T15:54:34.901Z,23.17
2017-11-09T15:57:01.031Z,22.93
2017-11-09T15:59:27.249Z,22.27
2017-11-09T16:01:53.525Z,23.80
2017-11-09T16:04:20.083Z,23.27
2017-11-09T16:06:47.132Z,22.67
2017-11-09T16:09:14.156Z,22.70
2017-11-09T16:11:41.055Z,23.63
2017-11-09T16:14:07.397Z,24.60
2017-11-09T16:16:33.712Z,25.43
2017-11-09T16:18:59.947Z,27.30
2017-11-09T16:21:26.105Z,42.07
2017-11-09T16:23:53.183Z,56.57
2017-11-09T16:26:20.145Z,44.90
2017-11-09T16:28:48.114Z,29.97
2017-11-09T16:31:14.368Z,24.80
2017-11-09T16:33:40.511Z,23.13
2017-11-09T16:36:06.727Z,24.23
2017-11-09T16:38:32.897Z,25.03
2017-11-09T16:40:59.936Z,22.80
2017-11-09T16:43:26.151Z,21.60
2017-11-09T16:45:53.083Z,20.37
2017-11-09T16:48:19.286Z,20.83
2017-11-09T16:50:46.292Z,19.67
2017-11-09T16:53:12.499Z,19.67
2017-11-09T16:55:40.212Z,18.83
2017-11-09T16:58:06.380Z,16.83
2017-11-09T17:00:32.665Z,16.90
2017-11-09T17:02:58.937Z,16.77
2017-11-09T17:05:25.093Z,17.97
2017-11-09T17:07:51.313Z,18.23
2017-11-09T17:10:17.452Z,20.03
2017-11-09T17:12:43.665Z,18.67
2017-11-09T17:15:09.878Z,16.17
2017-11-09T17:17:37.046Z,18.40
2017-11-09T17:20:03.235Z,16.93
2017-11-09T17:22:29.348Z,15.80
2017-11-09T17:24:55.647Z,15.80
2017-11-09T17:27:21.906Z,15.63
2017-11-09T17:29:48.053Z,15.90
2017-11-09T17:32:14.303Z,14.33
2017-11-09T17:34:40.616Z,15.33
2017-11-09T17:37:07.579Z,15.73
2017-11-09T17:39:33.710Z,16.13
2017-11-09T17:42:05.932Z,15.27
2017-11-09T17:44:32.168Z,13.03
2017-11-09T17:46:59.125Z,14.30
2017-11-09T17:49:25.372Z,14.50
2017-11-09T17:51:51.628Z,15.10
2017-11-09T17:54:18.373Z,14.97
2017-11-09T17:56:48.390Z,14.80
2017-11-09T17:59:14.621Z,13.80
2017-11-09T18:01:40.872Z,17.50
2017-11-09T18:04:07.881Z,16.50
2017-11-09T18:06:34.296Z,15.87
2017-11-09T18:09:00.525Z,15.57
2017-11-09T18:11:26.977Z,17.13
2017-11-09T18:13:53.211Z,15.53
2017-11-09T18:16:19.467Z,16.37
2017-11-09T18:18:45.698Z,16.70
2017-11-09T18:21:12.564Z,18.07
2017-11-09T18:23:38.783Z,18.10
2017-11-09T18:26:04.883Z,20.17
2017-11-09T18:28:31.234Z,16.10
2017-11-09T18:30:58.367Z,16.00
2017-11-09T18:33:25.332Z,16.30
2017-11-09T18:35:51.543Z,17.40
2017-11-09T18:38:18.510Z,16.97
2017-11-09T18:40:44.610Z,16.40
2017-11-09T18:43:11.541Z,17.47
2017-11-09T18:45:38.528Z,17.23
2017-11-09T18:48:04.681Z,18.33
2017-11-09T18:50:30.923Z,18.30
2017-11-09T18:52:57.137Z,17.47
2017-11-09T18:55:23.421Z,18.50
2017-11-09T18:57:49.555Z,18.57
2017-11-09T19:00:15.726Z,19.87
2017-11-09T19:02:41.865Z,17.53
2017-11-09T19:05:08.115Z,14.57
2017-11-09T19:07:35.102Z,17.50
2017-11-09T19:10:01.335Z,20.80
2017-11-09T19:12:28.247Z,17.53
2017-11-09T19:14:54.656Z,18.10
2017-11-09T19:17:21.785Z,19.30
2017-11-09T19:19:48.070Z,19.50
2017-11-09T19:22:14.194Z,20.33
2017-11-09T19:24:40.422Z,20.60
2017-11-09T19:27:06.608Z,19.03
2017-11-09T19:29:33.557Z,21.37
2017-11-09T19:32:00.611Z,18.30
2017-11-09T19:34:26.861Z,16.90
2017-11-09T19:36:53.218Z,16.57
2017-11-09T19:39:19.642Z,19.07
2017-11-09T19:41:45.913Z,18.87
2017-11-09T19:44:12.848Z,19.90
2017-11-09T19:46:40.098Z,16.83
2017-11-09T19:49:07.086Z,17.53
2017-11-09T19:51:33.292Z,17.50
2017-11-09T19:53:59.488Z,16.70
2017-11-09T19:56:25.958Z,15.70
2017-11-09T19:58:52.222Z,15.47
2017-11-09T20:01:18.669Z,16.63
2017-11-09T20:03:45.012Z,16.40
2017-11-09T20:06:11.990Z,17.50
2017-11-09T20:08:38.188Z,16.10
2017-11-09T20:11:05.149Z,16.43
2017-11-09T20:13:31.419Z,17.93
2017-11-09T20:15:57.646Z,17.50
2017-11-09T20:18:23.813Z,16.50
2017-11-09T20:20:50.904Z,16.57
2017-11-09T20:23:17.065Z,17.33
2017-11-09T20:25:43.383Z,17.60
2017-11-09T20:28:09.635Z,19.40
2017-11-09T20:30:35.912Z,19.20
2017-11-09T20:33:02.137Z,22.30
2017-11-09T20:35:28.529Z,21.47
2017-11-09T20:37:59.431Z,23.10
2017-11-09T20:40:25.827Z,23.80
2017-11-09T20:42:52.078Z,21.37
2017-11-09T20:45:18.426Z,23.37
2017-11-09T20:47:44.676Z,25.00
2017-11-09T20:50:10.944Z,22.73
2017-11-09T20:52:37.289Z,23.37
2017-11-09T20:55:03.611Z,19.60
2017-11-09T20:57:29.844Z,20.90
2017-11-09T20:59:56.048Z,21.00
2017-11-09T21:02:24.183Z,19.03
2017-11-09T21:04:50.493Z,18.50
2017-11-09T21:07:16.671Z,19.80
2017-11-09T21:09:42.923Z,18.23
2017-11-09T21:12:09.236Z,17.50
2017-11-09T21:14:35.500Z,17.20
2017-11-09T21:17:01.670Z,18.63
2017-11-09T21:19:28.025Z,16.70
2017-11-09T21:21:54.163Z,17.13
2017-11-09T21:24:20.325Z,16.30
2017-11-09T21:26:47.367Z,17.83
2017-11-09T21:29:13.581Z,16.80
2017-11-09T21:31:39.798Z,16.60
2017-11-09T21:34:06.068Z,16.80
2017-11-09T21:36:33.010Z,17.30
2017-11-09T21:38:59.981Z,15.73
2017-11-09T21:41:26.255Z,18.20
2017-11-09T21:43:52.434Z,18.67
2017-11-09T21:46:19.561Z,17.07
2017-11-09T21:48:46.470Z,18.40
2017-11-09T21:51:12.740Z,19.07
2017-11-09T21:53:39.061Z,22.97
2017-11-09T21:56:06.267Z,21.83
2017-11-09T21:58:32.579Z,26.10
2017-11-09T22:00:59.091Z,27.57
2017-11-09T22:03:25.366Z,28.07
2017-11-09T22:05:51.961Z,27.40
2017-11-09T22:08:18.159Z,33.23
2017-11-09T22:10:45.118Z,29.87
2017-11-09T22:13:11.367Z,22.57
2017-11-09T22:15:37.731Z,20.67
2017-11-09T22:18:03.872Z,19.10
2017-11-09T22:20:30.824Z,19.03
2017-11-09T22:22:58.515Z,17.07
2017-11-09T22:25:24.817Z,17.53
2017-11-09T22:27:51.200Z,18.97
2017-11-09T22:30:17.455Z,17.23
2017-11-09T22:32:44.529Z,16.07
2017-11-09T22:35:11.437Z,15.30
2017-11-09T22:37:37.921Z,18.80
2017-11-09T22:40:04.145Z,15.80
2017-11-09T22:42:30.316Z,16.73
2017-11-09T22:44:56.606Z,16.47
2017-11-09T22:47:22.787Z,17.00
2017-11-09T22:49:48.925Z,16.30
2017-11-09T22:52:15.831Z,15.50
2017-11-09T22:54:42.078Z,16.80
2017-11-09T22:57:08.380Z,16.00
2017-11-09T22:59:35.450Z,18.00
2017-11-09T23:02:02.662Z,16.80
2017-11-09T23:04:28.924Z,16.90
2017-11-09T23:06:55.386Z,17.23
2017-11-09T23:09:22.362Z,16.90
2017-11-09T23:11:48.658Z,17.57
2017-11-09T23:14:15.578Z,16.60
2017-11-09T23:16:41.986Z,17.27
2017-11-09T23:19:08.194Z,18.13
2017-11-09T23:21:34.395Z,16.90
2017-11-09T23:24:00.696Z,16.23
2017-11-09T23:26:27.703Z,17.43
2017-11-09T23:28:53.992Z,17.23
2017-11-09T23:31:20.933Z,17.07
2017-11-09T23:33:47.815Z,16.70
2017-11-09T23:36:14.099Z,16.17
2017-11-09T23:38:40.247Z,15.63
2017-11-09T23:41:06.437Z,15.10
2017-11-09T23:43:33.449Z,15.47
2017-11-09T23:45:59.725Z,16.90
2017-11-09T23:48:26.622Z,16.60
2017-11-09T23:50:52.784Z,16.30
2017-11-09T23:53:19.770Z,15.43
2017-11-09T23:55:46.080Z,15.40
2017-11-09T23:58:12.434Z,16.00
